Time;durP1;ratioP1;P1;durP2;ratioP2;P2;SDS_P1;SDS_P2;PMS_P1;PMS_P2;Temp;Humidity;BMP_temperature;BMP_pressure;BME280_temperature;BME280_humidity;BME280_pressure;Samples;Min_cycle;Max_cycle;Signal;HPM_P1;HPM_P2
2022/07/21 00:02:33;;;;;;;1.08;0.82;;;19.30;99.90;;;;;;6656726;89;20209;-78
2022/07/21 00:12:34;;;;;;;1.05;0.50;;;19.00;99.90;;;;;;6653968;89;20679;-78
2022/07/21 00:22:35;;;;;;;1.23;0.70;;;19.10;99.90;;;;;;6670621;89;20219;-77
2022/07/21 00:32:35;;;;;;;0.77;0.47;;;19.10;99.90;;;;;;6669353;89;20187;-78
2022/07/21 00:42:36;;;;;;;1.10;0.70;;;19.10;99.90;;;;;;6668357;89;20211;-79
2022/07/21 00:52:38;;;;;;;1.05;0.60;;;19.00;99.90;;;;;;6680592;89;20200;-78
2022/07/21 01:02:39;;;;;;;1.08;0.75;;;18.90;99.90;;;;;;6683691;88;20182;-78
2022/07/21 01:12:40;;;;;;;0.45;0.30;;;18.90;99.90;;;;;;6686388;88;20798;-77
2022/07/21 01:22:43;;;;;;;0.90;0.50;;;19.20;99.90;;;;;;6676724;88;20646;-78
2022/07/21 01:32:45;;;;;;;0.75;0.60;;;19.00;99.90;;;;;;6668668;89;20206;-77
2022/07/21 01:42:45;;;;;;;0.80;0.55;;;19.00;99.90;;;;;;6665507;89;20194;-78
2022/07/21 01:52:46;;;;;;;1.12;0.70;;;18.90;99.90;;;;;;6674829;77;20284;-80
2022/07/21 02:02:47;;;;;;;0.70;0.40;;;18.90;99.90;;;;;;6664145;89;20434;-79
2022/07/21 02:12:47;;;;;;;0.77;0.50;;;18.80;99.90;;;;;;6670807;88;20869;-78
2022/07/21 02:22:49;;;;;;;0.68;0.40;;;18.60;99.90;;;;;;6679051;88;20213;-79
2022/07/21 02:32:49;;;;;;;0.50;0.40;;;18.60;99.90;;;;;;6669324;88;20782;-78
2022/07/21 02:42:50;;;;;;;0.57;0.40;;;18.60;99.90;;;;;;6675330;88;20211;-78
2022/07/21 02:52:53;;;;;;;0.95;0.57;;;18.60;99.90;;;;;;6672957;88;20203;-76
2022/07/21 03:02:53;;;;;;;1.17;0.70;;;18.50;99.90;;;;;;6645477;89;20263;-76
2022/07/21 03:12:54;;;;;;;0.80;0.43;;;18.40;99.90;;;;;;6667717;89;20203;-77
2022/07/21 03:22:55;;;;;;;0.75;0.57;;;18.30;99.90;;;;;;6672972;88;20199;-78
2022/07/21 03:32:57;;;;;;;0.30;0.20;;;18.10;99.90;;;;;;6698592;88;20206;-80
2022/07/21 03:42:59;;;;;;;0.37;0.30;;;18.40;99.90;;;;;;6685180;88;20187;-79
2022/07/21 03:53:00;;;;;;;0.68;0.55;;;18.40;99.90;;;;;;6681650;89;20724;-79
2022/07/21 04:03:01;;;;;;;0.17;0.10;;;18.50;99.90;;;;;;6687205;89;20195;-79
2022/07/21 04:13:05;;;;;;;0.40;0.25;;;18.70;99.90;;;;;;6681288;89;20249;-80
2022/07/21 04:23:05;;;;;;;0.90;0.70;;;18.60;99.90;;;;;;6695140;89;20182;-80
2022/07/21 04:33:06;;;;;;;0.20;0.20;;;18.50;99.90;;;;;;6692877;88;20217;-80
2022/07/21 04:43:06;;;;;;;0.75;0.47;;;18.50;99.90;;;;;;6671530;89;20196;-80
2022/07/21 04:53:08;;;;;;;0.40;0.37;;;18.60;99.90;;;;;;6691317;89;20222;-81
2022/07/21 05:03:08;;;;;;;0.62;0.40;;;18.60;99.90;;;;;;6674149;89;20597;-81
2022/07/21 05:13:09;;;;;;;0.50;0.45;;;18.80;99.90;;;;;;6686384;89;20260;-80
2022/07/21 05:23:09;;;;;;;0.70;0.35;;;19.00;99.90;;;;;;6686792;88;20239;-81
2022/07/21 05:33:11;;;;;;;1.75;1.25;;;19.00;99.90;;;;;;6679948;89;20222;-79
2022/07/21 05:43:11;;;;;;;0.52;0.37;;;19.00;99.90;;;;;;6688650;89;20761;-79
2022/07/21 05:53:12;;;;;;;0.30;0.30;;;18.80;99.90;;;;;;6672914;89;20241;-80
2022/07/21 06:03:12;;;;;;;0.73;0.57;;;18.70;99.90;;;;;;6676266;89;20320;-80
2022/07/21 06:13:13;;;;;;;0.20;0.10;;;18.40;99.90;;;;;;6684756;89;20655;-80
2022/07/21 06:23:14;;;;;;;0.60;0.40;;;18.10;99.90;;;;;;6699105;89;20248;-79
2022/07/21 06:33:15;;;;;;;0.60;0.43;;;18.00;99.90;;;;;;6682465;89;20202;-80
2022/07/21 06:43:15;;;;;;;0.60;0.50;;;18.20;99.90;;;;;;6683472;89;20256;-80
2022/07/21 06:53:16;;;;;;;0.20;0.10;;;18.30;99.90;;;;;;6676835;89;20192;-80
2022/07/21 07:03:18;;;;;;;0.77;0.50;;;18.50;99.90;;;;;;6681980;88;20194;-80
2022/07/21 07:13:18;;;;;;;0.40;0.32;;;18.70;99.90;;;;;;6693082;88;20628;-80
2022/07/21 07:23:19;;;;;;;0.85;0.50;;;19.00;99.90;;;;;;6689141;88;20208;-80
2022/07/21 07:33:21;;;;;;;0.93;0.80;;;20.00;99.90;;;;;;6683716;89;20554;-81
2022/07/21 07:43:22;;;;;;;0.32;0.20;;;20.10;99.90;;;;;;6693954;88;20501;-79
2022/07/21 08:03:27;;;;;;;1.15;0.60;;;21.00;99.90;;;;;;6695629;88;20234;-78
2022/07/21 08:13:27;;;;;;;1.23;1.02;;;21.40;99.90;;;;;;6700418;88;20276;-79
2022/07/21 08:23:28;;;;;;;0.70;0.40;;;22.30;99.90;;;;;;6695125;88;20280;-78
2022/07/21 08:33:28;;;;;;;0.73;0.40;;;22.60;99.90;;;;;;6700839;88;20715;-77
2022/07/21 08:43:30;;;;;;;0.47;0.30;;;23.20;99.90;;;;;;6688946;88;20614;-78
2022/07/21 08:53:30;;;;;;;0.77;0.35;;;23.20;99.90;;;;;;6693546;88;20669;-78
2022/07/21 09:03:32;;;;;;;1.15;0.70;;;22.60;99.90;;;;;;6687962;88;20190;-78
2022/07/21 09:13:32;;;;;;;0.65;0.45;;;22.60;99.90;;;;;;6698404;88;20214;-78
2022/07/21 09:23:33;;;;;;;0.88;0.43;;;23.30;99.90;;;;;;6690320;88;20712;-78
2022/07/21 09:33:37;;;;;;;1.05;0.40;;;23.80;99.90;;;;;;6685735;88;20216;-78
2022/07/21 09:43:44;;;;;;;0.93;0.50;;;23.50;99.90;;;;;;6696826;88;20213;-78
2022/07/21 09:54:11;;;;;;;0.62;0.40;;;23.40;99.90;;;;;;6693189;88;20212;-78
2022/07/21 10:04:13;;;;;;;0.93;0.43;;;24.60;99.90;;;;;;6696703;88;20193;-79
2022/07/21 10:14:13;;;;;;;0.80;0.45;;;25.40;99.90;;;;;;6691774;88;20212;-78
2022/07/21 10:24:14;;;;;;;0.50;0.30;;;25.50;99.90;;;;;;6692672;88;20191;-78
2022/07/21 10:34:15;;;;;;;0.55;0.40;;;25.40;99.90;;;;;;6695191;88;20231;-78
2022/07/21 10:44:27;;;;;;;0.75;0.50;;;26.30;99.90;;;;;;6697338;88;20728;-78
2022/07/21 10:54:28;;;;;;;0.70;0.40;;;25.80;99.90;;;;;;6695455;88;20605;-78
2022/07/21 11:04:29;;;;;;;0.60;0.33;;;25.40;99.90;;;;;;6693609;88;20246;-77
2022/07/21 11:14:44;;;;;;;0.70;0.50;;;25.60;99.90;;;;;;6693250;88;20186;-77
2022/07/21 11:25:00;;;;;;;0.82;0.45;;;25.10;99.90;;;;;;6690307;88;20231;-78
2022/07/21 11:35:03;;;;;;;0.80;0.50;;;25.30;99.90;;;;;;6695372;88;20360;-78
2022/07/21 11:45:04;;;;;;;0.87;0.50;;;25.30;99.90;;;;;;6688282;88;20320;-78
2022/07/21 11:55:08;;;;;;;1.45;0.90;;;24.90;99.90;;;;;;6693302;88;20188;-77
2022/07/21 12:05:09;;;;;;;0.95;0.60;;;24.20;99.90;;;;;;6686134;88;20215;-78
2022/07/21 12:15:14;;;;;;;1.77;0.77;;;22.60;99.90;;;;;;6686733;88;20217;-77
2022/07/21 12:25:17;;;;;;;1.15;0.55;;;20.60;99.90;;;;;;6690216;88;20230;-78
2022/07/21 12:35:27;;;;;;;0.98;0.50;;;20.00;99.90;;;;;;6687978;88;20209;-77
2022/07/21 12:45:27;;;;;;;0.80;0.75;;;20.30;99.90;;;;;;6685529;88;20327;-77
2022/07/21 12:55:28;;;;;;;0.68;0.50;;;20.20;99.90;;;;;;6687441;88;20201;-78
2022/07/21 13:05:28;;;;;;;0.60;0.47;;;20.80;99.90;;;;;;6686588;88;20215;-78
2022/07/21 13:15:29;;;;;;;1.05;0.80;;;21.10;99.90;;;;;;6687930;88;20739;-77
2022/07/21 13:25:30;;;;;;;1.17;0.97;;;21.40;99.90;;;;;;6683505;88;20203;-77
2022/07/21 13:35:30;;;;;;;0.90;0.57;;;21.40;99.90;;;;;;6687067;88;20504;-78
2022/07/21 13:45:31;;;;;;;0.62;0.50;;;21.20;99.90;;;;;;6684666;88;20287;-77
2022/07/21 13:55:31;;;;;;;1.67;0.60;;;21.20;99.90;;;;;;6687099;88;20224;-78
2022/07/21 14:05:32;;;;;;;1.00;0.70;;;20.90;99.90;;;;;;6686087;88;20499;-78
2022/07/21 14:15:33;;;;;;;1.00;0.70;;;20.60;99.90;;;;;;6682845;88;20217;-78
2022/07/21 14:25:33;;;;;;;0.80;0.50;;;20.40;99.90;;;;;;6685965;88;20207;-78
2022/07/21 14:35:34;;;;;;;0.70;0.52;;;20.10;99.90;;;;;;6689867;88;20501;-77
2022/07/21 14:45:34;;;;;;;1.27;0.90;;;20.10;99.90;;;;;;6686511;88;20168;-78
2022/07/21 14:55:35;;;;;;;0.68;0.45;;;20.10;99.90;;;;;;6689468;88;20216;-78
2022/07/21 15:05:36;;;;;;;0.65;0.40;;;19.90;99.90;;;;;;6685679;88;20224;-77
2022/07/21 15:15:37;;;;;;;0.82;0.70;;;19.30;99.90;;;;;;6687280;88;20179;-78
2022/07/21 15:25:37;;;;;;;0.47;0.30;;;19.10;99.90;;;;;;6688900;88;20686;-77
2022/07/21 15:35:38;;;;;;;0.52;0.40;;;18.90;99.90;;;;;;6682097;88;20343;-77
2022/07/21 15:45:39;;;;;;;0.55;0.50;;;18.90;99.90;;;;;;6687929;88;20199;-77
2022/07/21 15:55:39;;;;;;;0.80;0.33;;;19.00;99.90;;;;;;6685024;88;20202;-77
2022/07/21 16:05:40;;;;;;;0.63;0.50;;;19.20;99.90;;;;;;6685327;88;20261;-77
2022/07/21 16:15:41;;;;;;;0.83;0.70;;;19.30;99.90;;;;;;6685097;88;20316;-77
2022/07/21 16:25:41;;;;;;;1.02;0.75;;;19.60;99.90;;;;;;6686701;88;20513;-78
2022/07/21 16:35:42;;;;;;;0.60;0.30;;;19.60;99.90;;;;;;6685268;88;20669;-77
2022/07/21 16:45:42;;;;;;;0.75;0.43;;;19.80;99.90;;;;;;6685461;88;20175;-78
2022/07/21 16:55:43;;;;;;;0.70;0.35;;;19.70;99.90;;;;;;6685613;88;20309;-77
2022/07/21 17:05:43;;;;;;;0.80;0.40;;;19.80;99.90;;;;;;6684937;88;20351;-77
2022/07/21 17:15:44;;;;;;;0.40;0.30;;;19.50;99.90;;;;;;6682921;88;20304;-77
2022/07/21 17:25:45;;;;;;;0.43;0.30;;;19.60;99.90;;;;;;6688412;88;20257;-77
2022/07/21 17:35:46;;;;;;;1.25;0.88;;;19.60;99.90;;;;;;6684034;88;20187;-78
2022/07/21 17:45:46;;;;;;;0.75;0.50;;;19.60;99.90;;;;;;6696277;88;20195;-78
2022/07/21 17:55:47;;;;;;;0.60;0.50;;;19.60;99.90;;;;;;6687252;88;20307;-78
2022/07/21 18:05:47;;;;;;;0.50;0.50;;;19.60;99.90;;;;;;6688495;88;20207;-78
2022/07/21 18:15:48;;;;;;;0.50;0.40;;;19.50;99.90;;;;;;6685940;88;20233;-77
2022/07/21 18:25:48;;;;;;;0.70;0.52;;;19.60;99.90;;;;;;6686187;88;20616;-77
2022/07/21 18:35:49;;;;;;;0.40;0.20;;;19.50;99.90;;;;;;6698058;88;20257;-78
2022/07/21 18:45:49;;;;;;;0.88;0.70;;;19.40;99.90;;;;;;6688424;88;20222;-78
2022/07/21 18:55:50;;;;;;;0.57;0.32;;;19.10;99.90;;;;;;6686125;88;20232;-77
2022/07/21 19:05:50;;;;;;;2.97;0.90;;;18.90;99.90;;;;;;6687177;88;20198;-82
2022/07/21 19:15:51;;;;;;;2.12;1.37;;;18.90;99.90;;;;;;6687997;88;20940;-79
2022/07/21 19:25:52;;;;;;;1.23;1.07;;;19.00;99.90;;;;;;6685548;88;20315;-77
2022/07/21 19:35:52;;;;;;;0.85;0.47;;;19.00;99.90;;;;;;6684340;88;20508;-78
2022/07/21 19:45:53;;;;;;;0.80;0.60;;;18.90;99.90;;;;;;6683388;88;20281;-78
2022/07/21 19:55:53;;;;;;;0.80;0.50;;;18.90;99.90;;;;;;6684433;88;20668;-77
2022/07/21 20:05:54;;;;;;;0.55;0.32;;;18.90;99.90;;;;;;6683392;88;20198;-76
2022/07/21 20:15:55;;;;;;;0.90;0.68;;;18.90;99.90;;;;;;6685704;88;20183;-79
2022/07/21 20:25:55;;;;;;;0.57;0.50;;;18.70;99.90;;;;;;6687040;88;20316;-76
2022/07/21 20:35:56;;;;;;;0.57;0.47;;;18.80;99.90;;;;;;6689594;88;20534;-78
2022/07/21 20:45:57;;;;;;;1.15;0.45;;;18.70;99.90;;;;;;6685031;88;20195;-78
2022/07/21 20:55:59;;;;;;;0.70;0.50;;;18.70;99.90;;;;;;6685912;88;20705;-77
2022/07/21 21:05:59;;;;;;;0.65;0.45;;;18.60;99.90;;;;;;6685345;88;20231;-77
2022/07/21 21:16:00;;;;;;;0.43;0.30;;;18.50;99.90;;;;;;6685975;88;20206;-77
2022/07/21 21:26:01;;;;;;;0.57;0.40;;;18.50;99.90;;;;;;6683021;88;20197;-77
2022/07/21 21:36:01;;;;;;;0.60;0.57;;;18.50;99.90;;;;;;6686399;88;20250;-77
2022/07/21 21:46:08;;;;;;;0.43;0.37;;;18.60;99.90;;;;;;6682798;88;20291;-78
2022/07/21 21:56:08;;;;;;;0.60;0.40;;;18.50;99.90;;;;;;6683207;88;20270;-77
2022/07/21 22:06:09;;;;;;;1.02;0.68;;;18.30;99.90;;;;;;6685314;88;20362;-78
2022/07/21 22:16:09;;;;;;;0.30;0.20;;;18.20;99.90;;;;;;6683612;88;20241;-76
2022/07/21 22:26:10;;;;;;;0.40;0.40;;;18.10;99.90;;;;;;6685638;88;20274;-78
2022/07/21 22:36:11;;;;;;;0.20;0.17;;;18.10;99.90;;;;;;6689352;88;20171;-77
2022/07/21 22:46:11;;;;;;;0.60;0.50;;;18.00;99.90;;;;;;6691459;88;20255;-77
2022/07/21 22:56:12;;;;;;;0.47;0.35;;;17.90;99.90;;;;;;6682899;88;20196;-78
2022/07/21 23:06:12;;;;;;;0.65;0.57;;;18.00;99.90;;;;;;6690002;88;20692;-77
2022/07/21 23:16:13;;;;;;;0.62;0.55;;;17.90;99.90;;;;;;6689707;88;20206;-77
2022/07/21 23:26:13;;;;;;;0.75;0.60;;;17.90;99.90;;;;;;6689861;88;20269;-77
2022/07/21 23:36:14;;;;;;;0.60;0.45;;;17.90;99.90;;;;;;6685045;88;20191;-77
2022/07/21 23:46:14;;;;;;;0.57;0.40;;;17.70;99.90;;;;;;6685922;88;20393;-77
2022/07/21 23:56:15;;;;;;;0.52;0.40;;;17.80;99.90;;;;;;6687535;88;20389;-77
